Login to view products. 
Thursday, January 19, 2017 (02:10 UTC)
Al Bateen Executive Airport
ICAO Code: OMAD
IATA Code: AZI
  • METAR OMAD 190200Z VRB01KT CAVOK 16/14 Q1018 NOSIG=
  • TAF COR OMAD 190155Z 1901/2006 VRB02KT 8000 NSC BECMG 1908/1910 30008KT BECMG 1918/1920 VRB02KT PROB30 2000/2005 3000 BR=